Shoryu — 3FVC5 — position and weather

sailwx.info

Track history (hours):
 
Tides and Currents Weather Stations Pressure Air Temp Water Temp Dewpoint Dewpoint Depression Visibility Wind Speed Wind Dir Waves Ship Positions

Shoryu

Last reported at 2017-Nov-20 00:30 UTC. Time now 2017-Nov-23 05:38 UTC.
Position S 32°53' E 151°46'.

Length 235 m; draft 7.1 m.

Type: Cargo ship. MMSI: 351897000.

Date/timePositionNaut miles runAvg speedWind from/ knotsBaromVisibWave heightAir tempDewpointWater temp
2017-Nov-20 00:30S 32°53' E 151°46'0 0.0
2017-Nov-20 00:00S 32°53' E 151°46'1 1.5
2017-Nov-19 23:30S 32°54' E 151°46'2 3.9
2017-Nov-19 23:00S 32°55' E 151°48'4 7.9
2017-Nov-19 22:30S 32°58' E 151°51'1 2.9
2017-Nov-19 22:00S 32°59' E 151°53'3 5.5
2017-Nov-19 21:30S 33°01' E 151°52'4 8.1
2017-Nov-19 21:00S 33°04' E 151°48'4 0.4
2017-Nov-19 12:32S 33°06' E 151°44'0 0.0
2017-Nov-19 04:26S 33°06' E 151°44'0 0.0
2017-Nov-19 03:59S 33°06' E 151°44'0 0.0
2017-Nov-19 03:17S 33°06' E 151°44'0 0.0
2017-Nov-19 00:44S 33°06' E 151°44'0 0.0
2017-Nov-19 00:29S 33°06' E 151°44'0 0.0
2017-Nov-18 22:26S 33°06' E 151°44'0 0.0
2017-Nov-18 20:47S 33°06' E 151°44'0 0.0
2017-Nov-18 19:47S 33°06' E 151°44'0 0.0
2017-Nov-18 19:23S 33°06' E 151°44'0 0.0
2017-Nov-18 18:53S 33°06' E 151°44'0 0.1
2017-Nov-18 18:30S 33°06' E 151°44'0 0.4
2017-Nov-18 18:01S 33°06' E 151°44'2 4.2
2017-Nov-18 17:30S 33°05' E 151°47'510.6
2017-Nov-18 17:00S 33°03' E 151°52'612.9
2017-Nov-18 16:30S 32°59' E 151°58'713.4
2017-Nov-18 16:00S 32°55' E 152°04'713.8
2017-Nov-18 15:30S 32°51' E 152°12'713.7
2017-Nov-18 15:01S 32°48' E 152°18'714.2
2017-Nov-18 14:31S 32°43' E 152°24'713.7
2017-Nov-18 14:00S 32°38' E 152°30'714.2
2017-Nov-18 13:31S 32°32' E 152°35'815.7
2017-Nov-18 13:01S 32°26' E 152°40'2515.2
2017-Nov-18 11:22S 32°03' E 152°52'20715.0
2017-Nov-17 21:36S 28°42' E 153°49'214.4
2017-Nov-17 21:29S 28°40' E 153°49'714.7
2017-Nov-17 21:01S 28°34' E 153°50'815.0
2017-Nov-17 20:30S 28°26' E 153°50'715.0
2017-Nov-17 20:00S 28°19' E 153°51'715.0
2017-Nov-17 19:30S 28°11' E 153°51'714.8
2017-Nov-17 19:00S 28°04' E 153°52'714.7
2017-Nov-17 18:30S 27°56' E 153°52'714.5
2017-Nov-17 18:01S 27°49' E 153°52'714.3
2017-Nov-17 17:30S 27°42' E 153°53'  
Track history (hours):
 
Tides and Currents Weather Stations Pressure Air Temp Water Temp Dewpoint Dewpoint Depression Visibility Wind Speed Wind Dir Waves Ship Positions

Shoryu

Last reported at 2017-Nov-20 00:30 UTC. Time now 2017-Nov-23 05:38 UTC.
Position S 32°53' E 151°46'.

Length 235 m; draft 7.1 m.

Type: Cargo ship. MMSI: 351897000.

Date/timePositionNaut miles runAvg speedWind from/ knotsBaromVisibWave heightAir tempDewpointWater temp
2017-Nov-20 00:30S 32°53' E 151°46'0 0.0
2017-Nov-20 00:00S 32°53' E 151°46'1 1.5
2017-Nov-19 23:30S 32°54' E 151°46'2 3.9
2017-Nov-19 23:00S 32°55' E 151°48'4 7.9
2017-Nov-19 22:30S 32°58' E 151°51'1 2.9
2017-Nov-19 22:00S 32°59' E 151°53'3 5.5
2017-Nov-19 21:30S 33°01' E 151°52'4 8.1
2017-Nov-19 21:00S 33°04' E 151°48'4 0.4
2017-Nov-19 12:32S 33°06' E 151°44'0 0.0
2017-Nov-19 04:26S 33°06' E 151°44'0 0.0
2017-Nov-19 03:59S 33°06' E 151°44'0 0.0
2017-Nov-19 03:17S 33°06' E 151°44'0 0.0
2017-Nov-19 00:44S 33°06' E 151°44'0 0.0
2017-Nov-19 00:29S 33°06' E 151°44'0 0.0
2017-Nov-18 22:26S 33°06' E 151°44'0 0.0
2017-Nov-18 20:47S 33°06' E 151°44'0 0.0
2017-Nov-18 19:47S 33°06' E 151°44'0 0.0
2017-Nov-18 19:23S 33°06' E 151°44'0 0.0
2017-Nov-18 18:53S 33°06' E 151°44'0 0.1
2017-Nov-18 18:30S 33°06' E 151°44'0 0.4
2017-Nov-18 18:01S 33°06' E 151°44'2 4.2
2017-Nov-18 17:30S 33°05' E 151°47'510.6
2017-Nov-18 17:00S 33°03' E 151°52'612.9
2017-Nov-18 16:30S 32°59' E 151°58'713.4
2017-Nov-18 16:00S 32°55' E 152°04'713.8
2017-Nov-18 15:30S 32°51' E 152°12'713.7
2017-Nov-18 15:01S 32°48' E 152°18'714.2
2017-Nov-18 14:31S 32°43' E 152°24'713.7
2017-Nov-18 14:00S 32°38' E 152°30'714.2
2017-Nov-18 13:31S 32°32' E 152°35'815.7
2017-Nov-18 13:01S 32°26' E 152°40'2515.2
2017-Nov-18 11:22S 32°03' E 152°52'20715.0
2017-Nov-17 21:36S 28°42' E 153°49'214.4
2017-Nov-17 21:29S 28°40' E 153°49'714.7
2017-Nov-17 21:01S 28°34' E 153°50'815.0
2017-Nov-17 20:30S 28°26' E 153°50'715.0
2017-Nov-17 20:00S 28°19' E 153°51'715.0
2017-Nov-17 19:30S 28°11' E 153°51'714.8
2017-Nov-17 19:00S 28°04' E 153°52'714.7
2017-Nov-17 18:30S 27°56' E 153°52'714.5
2017-Nov-17 18:01S 27°49' E 153°52'714.3
2017-Nov-17 17:30S 27°42' E 153°53'  

Dump ship's entire track history